Time;durP1;ratioP1;P1;durP2;ratioP2;P2;SDS_P1;SDS_P2;PMS_P1;PMS_P2;Temp;Humidity;BMP_temperature;BMP_pressure;BME280_temperature;BME280_humidity;BME280_pressure;Samples;Min_cycle;Max_cycle;Signal;HPM_P1;HPM_P2
2023/02/28 00:00:44;;;;;;;75.70;34.10;;;;;;;0.13;69.07;101724.89;129440;1264;128394;-73
2023/02/28 00:03:52;;;;;;;74.30;34.50;;;;;;;0.14;69.45;101723.32;129179;1282;114761;-72
2023/02/28 00:06:55;;;;;;;78.30;34.90;;;;;;;0.15;69.44;101719.13;129414;1264;114888;-66
2023/02/28 00:09:58;;;;;;;70.40;32.60;;;;;;;0.17;69.34;101720.20;129580;1265;114936;-71
2023/02/28 00:13:04;;;;;;;70.10;32.60;;;;;;;0.17;69.45;101718.80;129480;1260;115604;-72
2023/02/28 00:16:09;;;;;;;61.80;30.00;;;;;;;0.19;69.53;101724.45;129433;1264;128968;-76
2023/02/28 00:19:13;;;;;;;58.60;28.40;;;;;;;0.21;68.89;101725.36;129425;1254;115249;-74
2023/02/28 00:22:17;;;;;;;61.20;29.00;;;;;;;0.21;68.74;101722.02;130092;1276;114971;-66
2023/02/28 00:25:21;;;;;;;67.60;32.50;;;;;;;0.23;69.27;101719.26;129829;1254;114792;-65
2023/02/28 00:28:24;;;;;;;74.50;34.10;;;;;;;0.24;69.53;101721.03;130034;1276;114779;-62
2023/02/28 00:31:26;;;;;;;71.10;34.60;;;;;;;0.24;69.54;101720.51;130191;1254;114727;-72
2023/02/28 00:34:29;;;;;;;65.50;33.90;;;;;;;0.25;69.65;101721.74;129950;1256;114722;-69
2023/02/28 00:37:33;;;;;;;71.40;35.40;;;;;;;0.23;69.36;101720.67;130124;1254;114779;-62
2023/02/28 00:40:35;;;;;;;75.20;35.20;;;;;;;0.23;69.30;101715.90;130129;1256;115069;-74
2023/02/28 00:43:39;;;;;;;72.60;35.00;;;;;;;0.25;69.40;101713.48;130032;1272;114814;-74
2023/02/28 00:46:42;;;;;;;74.10;35.30;;;;;;;0.26;69.32;101713.31;130186;1253;114807;-71
2023/02/28 00:49:44;;;;;;;72.70;36.20;;;;;;;0.26;69.26;101711.20;130091;1267;114741;-70
2023/02/28 00:52:48;;;;;;;75.70;38.10;;;;;;;0.27;69.30;101709.99;130053;1256;114836;-66
2023/02/28 00:55:51;;;;;;;77.90;36.50;;;;;;;0.28;69.22;101709.30;130055;1270;115332;-65
2023/02/28 00:58:54;;;;;;;69.80;34.20;;;;;;;0.29;69.43;101709.15;130012;1256;114779;-72
2023/02/28 01:01:57;;;;;;;69.00;34.40;;;;;;;0.29;69.31;101708.63;130071;1256;115097;-67
2023/02/28 01:05:00;;;;;;;62.70;33.60;;;;;;;0.29;69.12;101711.45;130035;1256;114757;-69
2023/02/28 01:08:03;;;;;;;66.90;35.00;;;;;;;0.31;69.20;101706.19;130031;1256;114786;-66
2023/02/28 01:11:13;;;;;;;78.00;38.20;;;;;;;0.33;69.44;101711.14;130137;1272;114872;-75
2023/02/28 01:14:18;;;;;;;76.00;37.30;;;;;;;0.33;69.69;101705.70;129933;1260;114807;-71
2023/02/28 01:17:21;;;;;;;74.40;37.60;;;;;;;0.32;69.41;101710.44;129872;1259;114749;-75
2023/02/28 01:20:24;;;;;;;82.50;40.00;;;;;;;0.29;69.11;101707.22;130123;1267;114703;-73
2023/02/28 01:23:27;;;;;;;78.40;40.00;;;;;;;0.28;69.33;101702.11;130224;1256;114807;-75
2023/02/28 01:26:30;;;;;;;80.60;37.90;;;;;;;0.27;69.44;101701.57;129908;1276;114732;-74
2023/02/28 01:29:32;;;;;;;86.90;39.10;;;;;;;0.29;69.62;101702.29;130045;1256;114709;-62
2023/02/28 01:32:35;;;;;;;70.40;34.20;;;;;;;0.28;69.61;101700.70;130065;1254;114824;-74
2023/02/28 01:35:38;;;;;;;71.60;36.20;;;;;;;0.26;69.59;101704.17;130044;1269;114786;-68
2023/02/28 01:38:42;;;;;;;68.10;35.80;;;;;;;0.25;69.39;101700.83;130051;1268;114689;-65
2023/02/28 01:41:44;;;;;;;74.20;35.20;;;;;;;0.26;69.67;101698.91;129921;1259;127790;-74
2023/02/28 01:45:19;;;;;;;71.50;35.10;;;;;;;0.25;69.78;101697.84;129921;1276;114736;-73
2023/02/28 01:48:31;;;;;;;66.70;33.90;;;;;;;0.26;69.76;101695.40;129754;1260;114867;-72
2023/02/28 01:51:50;;;;;;;81.60;37.30;;;;;;;0.26;70.08;101693.83;129906;1260;114805;-70
2023/02/28 01:54:55;;;;;;;77.70;36.30;;;;;;;0.26;70.06;101693.46;129587;1261;114876;-73
2023/02/28 01:58:00;;;;;;;76.40;36.20;;;;;;;0.25;69.87;101694.14;129978;1267;129232;-65
2023/02/28 02:01:03;;;;;;;76.40;39.10;;;;;;;0.27;70.18;101695.75;129743;1262;115308;-68
2023/02/28 02:04:05;;;;;;;75.60;36.00;;;;;;;0.28;70.25;101698.23;130250;1253;114800;-73
2023/02/28 02:07:09;;;;;;;61.70;29.60;;;;;;;0.27;69.88;101698.39;130187;1253;114788;-73
2023/02/28 02:10:17;;;;;;;67.00;30.80;;;;;;;0.25;69.47;101694.14;130302;1256;114733;-73
2023/02/28 02:13:46;;;;;;;70.20;35.10;;;;;;;0.25;69.66;101694.85;129827;1252;127642;-61
2023/02/28 02:16:57;;;;;;;69.70;34.70;;;;;;;0.25;69.79;101693.09;130001;1256;115269;-60
2023/02/28 02:20:35;;;;;;;74.60;34.20;;;;;;;0.25;69.89;101696.09;129711;1276;115180;-65
2023/02/28 02:24:36;;;;;;;67.80;31.20;;;;;;;0.26;69.99;101698.73;129825;1262;116063;-67
2023/02/28 02:27:57;;;;;;;68.10;32.10;;;;;;;0.25;70.22;101695.90;129083;1289;114937;-74
2023/02/28 02:31:05;;;;;;;63.10;30.30;;;;;;;0.26;69.92;101689.77;128924;1289;128843;-66
2023/02/28 02:34:17;;;;;;;64.70;30.40;;;;;;;0.24;69.95;101694.31;129018;1287;114840;-73
2023/02/28 02:37:24;;;;;;;66.90;32.00;;;;;;;0.25;70.08;101695.91;128684;1265;114827;-70
2023/02/28 02:40:32;;;;;;;59.20;29.70;;;;;;;0.26;70.11;101689.41;129087;1266;114934;-73
2023/02/28 02:44:03;;;;;;;63.80;30.90;;;;;;;0.26;70.09;101688.55;129013;1266;114992;-71
2023/02/28 02:47:09;;;;;;;65.90;32.90;;;;;;;0.26;70.35;101690.11;128654;1273;127878;-63
2023/02/28 02:50:15;;;;;;;64.90;32.20;;;;;;;0.25;70.00;101689.58;128930;1271;115221;-74
2023/02/28 02:53:22;;;;;;;62.80;30.30;;;;;;;0.24;70.34;101687.81;128995;1266;114900;-65
2023/02/28 02:56:28;;;;;;;64.00;32.10;;;;;;;0.24;70.20;101686.94;128842;1272;114896;-69
2023/02/28 02:59:32;;;;;;;57.40;27.90;;;;;;;0.24;70.18;101687.46;129210;1283;115070;-75
2023/02/28 03:02:36;;;;;;;57.20;29.30;;;;;;;0.24;70.17;101688.88;129172;1283;127972;-74
2023/02/28 03:05:46;;;;;;;59.50;31.20;;;;;;;0.25;70.13;101690.98;129735;1262;115230;-73
2023/02/28 03:08:49;;;;;;;57.60;29.10;;;;;;;0.25;70.49;101690.63;130037;1259;114790;-72
2023/02/28 03:11:53;;;;;;;51.00;27.40;;;;;;;0.24;70.45;101689.73;129974;1257;114728;-68
2023/02/28 03:15:16;;;;;;;59.90;28.60;;;;;;;0.24;70.52;101690.98;129838;1260;114795;-73
2023/02/28 03:18:32;;;;;;;60.20;29.60;;;;;;;0.21;70.37;101693.39;129583;1277;128530;-68
2023/02/28 03:21:47;;;;;;;61.70;31.70;;;;;;;0.18;69.89;101694.92;129671;1270;115053;-63
2023/02/28 03:25:08;;;;;;;58.00;33.00;;;;;;;0.17;70.05;101693.51;129944;1262;115318;-74
2023/02/28 03:28:27;;;;;;;57.30;31.50;;;;;;;0.17;70.40;101695.95;130052;1256;114744;-68
2023/02/28 03:31:43;;;;;;;58.30;30.70;;;;;;;0.17;70.25;101701.23;130042;1256;114817;-72
2023/02/28 03:35:08;;;;;;;56.70;28.30;;;;;;;0.16;70.44;101703.85;130046;1256;127535;-74
2023/02/28 03:38:18;;;;;;;41.90;22.80;;;;;;;0.16;70.48;101708.25;129804;1262;114917;-73
2023/02/28 03:41:24;;;;;;;61.30;32.00;;;;;;;0.13;70.52;101707.33;129811;1262;116263;-69
2023/02/28 03:44:34;;;;;;;61.40;31.20;;;;;;;0.10;70.37;101709.22;130148;1257;114699;-73
2023/02/28 03:47:40;;;;;;;58.60;29.60;;;;;;;0.09;70.43;101711.45;130070;1267;114823;-66
2023/02/28 03:50:52;;;;;;;58.70;30.10;;;;;;;0.08;70.62;101710.05;129834;1276;127800;-73
2023/02/28 03:53:58;;;;;;;51.30;28.10;;;;;;;0.07;70.60;101707.23;129712;1262;115235;-69
2023/02/28 03:57:18;;;;;;;60.10;30.30;;;;;;;0.06;70.57;101708.09;129878;1260;114786;-71
2023/02/28 04:00:29;;;;;;;55.20;27.70;;;;;;;0.04;70.56;101714.38;129790;1254;114795;-74
2023/02/28 04:03:31;;;;;;;61.90;33.40;;;;;;;0.01;70.46;101716.60;130072;1276;114775;-73
2023/02/28 04:06:35;;;;;;;59.20;29.30;;;;;;;-0.01;70.47;101719.04;129814;1259;114825;-72
2023/02/28 04:09:37;;;;;;;57.30;28.10;;;;;;;-0.01;70.59;101716.40;130075;1253;114632;-73
2023/02/28 04:12:40;;;;;;;52.50;27.60;;;;;;;0.00;70.73;101716.77;129952;1257;115220;-71
2023/02/28 04:15:42;;;;;;;59.10;28.30;;;;;;;-0.01;70.75;101714.84;130208;1254;115491;-68
2023/02/28 04:18:45;;;;;;;51.20;27.90;;;;;;;-0.02;70.71;101716.91;130194;1256;114795;-72
2023/02/28 04:21:50;;;;;;;58.80;28.30;;;;;;;-0.03;70.83;101720.40;129713;1260;114891;-64
2023/02/28 04:24:54;;;;;;;55.00;29.40;;;;;;;-0.04;70.84;101723.91;130051;1256;128847;-68
2023/02/28 04:27:57;;;;;;;59.60;30.10;;;;;;;-0.04;70.96;101721.96;129841;1276;116534;-64
2023/02/28 04:31:02;;;;;;;65.80;33.20;;;;;;;-0.07;70.79;101730.15;130045;1257;115320;-69
2023/02/28 04:34:05;;;;;;;60.30;31.10;;;;;;;-0.09;70.91;101734.88;130160;1269;114781;-73
2023/02/28 04:37:07;;;;;;;62.20;32.40;;;;;;;-0.09;70.92;101738.56;130035;1276;114816;-70
2023/02/28 04:40:11;;;;;;;64.90;33.50;;;;;;;-0.08;71.14;101737.70;130110;1272;115414;-73
2023/02/28 04:43:13;;;;;;;65.20;32.10;;;;;;;-0.07;71.03;101733.84;129967;1276;114811;-61
2023/02/28 04:46:17;;;;;;;66.10;32.50;;;;;;;-0.06;71.01;101735.09;130097;1256;114713;-69
2023/02/28 04:49:19;;;;;;;61.40;33.80;;;;;;;-0.06;71.11;101735.45;130221;1257;114783;-70
2023/02/28 04:52:22;;;;;;;58.00;31.70;;;;;;;-0.06;71.14;101735.63;130057;1254;114882;-71
2023/02/28 04:55:25;;;;;;;60.90;30.90;;;;;;;-0.06;71.02;101731.40;130071;1256;114763;-72
2023/02/28 04:58:27;;;;;;;62.30;30.50;;;;;;;-0.07;70.98;101735.61;129958;1254;114725;-73
2023/02/28 05:01:32;;;;;;;57.00;29.20;;;;;;;-0.06;70.78;101736.70;130028;1256;115215;-67
2023/02/28 05:04:35;;;;;;;41.50;21.90;;;;;;;-0.05;71.05;101736.18;129976;1261;114758;-73
2023/02/28 05:07:37;;;;;;;48.80;27.20;;;;;;;-0.05;71.31;101734.60;130052;1256;114895;-69
2023/02/28 05:10:40;;;;;;;46.70;24.00;;;;;;;-0.04;71.01;101735.30;130011;1276;114737;-70
2023/02/28 05:13:43;;;;;;;47.20;22.40;;;;;;;-0.05;70.35;101740.20;130053;1261;114796;-71
2023/02/28 05:16:45;;;;;;;49.30;25.10;;;;;;;-0.07;70.40;101741.05;130292;1257;114792;-73
2023/02/28 05:19:48;;;;;;;44.00;25.70;;;;;;;-0.08;70.39;101745.25;130182;1276;115236;-73
2023/02/28 05:22:53;;;;;;;;;;;;;;;-0.09;70.52;101742.26;129991;1276;114776;-73
2023/02/28 05:25:55;;;;;;;49.10;26.60;;;;;;;-0.09;70.58;101745.23;130039;1256;115450;-73
2023/02/28 05:28:57;;;;;;;53.80;27.20;;;;;;;-0.09;70.80;101749.11;130127;1266;114741;-69
2023/02/28 05:32:00;;;;;;;58.80;28.30;;;;;;;-0.10;70.97;101747.33;130096;1254;114651;-63
2023/02/28 05:35:03;;;;;;;54.40;27.30;;;;;;;-0.10;70.99;101749.80;130039;1255;128960;-67
2023/02/28 05:38:06;;;;;;;55.20;29.60;;;;;;;-0.11;70.73;101758.19;130019;1270;114798;-71
2023/02/28 05:41:10;;;;;;;65.00;34.50;;;;;;;-0.18;70.69;101760.89;130070;1256;114731;-61
2023/02/28 05:44:12;;;;;;;59.60;31.30;;;;;;;-0.22;70.53;101762.73;130082;1260;115115;-65
2023/02/28 05:47:15;;;;;;;61.40;30.80;;;;;;;-0.24;70.51;101767.79;130085;1256;115291;-73
2023/02/28 05:50:17;;;;;;;63.30;30.90;;;;;;;-0.23;70.79;101767.29;129989;1254;114756;-73
2023/02/28 05:53:21;;;;;;;51.80;29.60;;;;;;;-0.19;70.88;101774.91;130050;1252;114758;-71
2023/02/28 05:56:23;;;;;;;49.90;27.20;;;;;;;-0.17;70.68;101776.55;129856;1262;116517;-64
2023/02/28 05:59:26;;;;;;;52.10;26.40;;;;;;;-0.16;70.21;101775.83;130105;1266;114834;-72
2023/02/28 06:02:28;;;;;;;58.00;28.70;;;;;;;-0.14;70.34;101775.34;130131;1266;114827;-68
2023/02/28 06:05:30;;;;;;;53.90;27.60;;;;;;;-0.11;70.46;101782.25;130325;1257;114811;-68
2023/02/28 06:08:33;;;;;;;55.20;27.30;;;;;;;-0.09;70.25;101785.09;129687;1263;114708;-74
2023/02/28 06:11:36;;;;;;;54.50;28.40;;;;;;;-0.06;70.33;101787.08;130123;1257;114749;-68
2023/02/28 06:14:38;;;;;;;56.60;27.80;;;;;;;-0.01;70.51;101790.34;130064;1266;114814;-74
2023/02/28 06:17:42;;;;;;;57.80;28.30;;;;;;;0.05;70.25;101791.15;130178;1257;114829;-67
2023/02/28 06:20:45;;;;;;;56.60;29.60;;;;;;;0.09;70.37;101790.16;130108;1254;115304;-69
2023/02/28 06:23:47;;;;;;;61.60;30.60;;;;;;;0.12;70.29;101795.31;129869;1259;114712;-72
2023/02/28 06:26:50;;;;;;;61.20;31.40;;;;;;;0.15;70.56;101800.82;130137;1258;115714;-62
2023/02/28 06:29:58;;;;;;;60.10;32.40;;;;;;;0.19;70.52;101802.27;129544;1255;128861;-65
2023/02/28 06:33:00;;;;;;;65.60;33.60;;;;;;;0.23;70.30;101807.61;129945;1277;115904;-60
2023/02/28 06:36:03;;;;;;;61.30;31.80;;;;;;;0.26;70.33;101809.44;129969;1260;114734;-71
2023/02/28 06:39:06;;;;;;;52.60;29.00;;;;;;;0.28;70.34;101809.30;129986;1259;114748;-74
2023/02/28 06:42:08;;;;;;;54.00;29.60;;;;;;;0.32;70.21;101816.21;129987;1260;115180;-74
2023/02/28 06:45:12;;;;;;;55.70;27.30;;;;;;;0.36;70.35;101812.94;129980;1259;114874;-67
2023/02/28 06:48:14;;;;;;;47.30;26.30;;;;;;;0.39;70.21;101807.55;129929;1267;128396;-72
2023/02/28 06:51:24;;;;;;;44.90;22.60;;;;;;;0.41;69.86;101818.13;129868;1277;114819;-66
2023/02/28 06:54:27;;;;;;;35.90;21.30;;;;;;;0.44;69.84;101817.45;129946;1261;114803;-72
2023/02/28 06:57:33;;;;;;;30.60;17.50;;;;;;;0.49;69.47;101820.02;129927;1258;115066;-71
2023/02/28 07:00:36;;;;;;;32.50;17.10;;;;;;;0.51;68.39;101819.70;129686;1255;114828;-62
2023/02/28 07:03:38;;;;;;;22.20;13.70;;;;;;;0.58;68.02;101818.05;129861;1260;114801;-73
2023/02/28 07:06:40;;;;;;;23.60;14.50;;;;;;;0.66;67.96;101812.73;130006;1260;114837;-74
2023/02/28 07:09:43;;;;;;;27.80;14.90;;;;;;;0.73;67.28;101817.41;130004;1264;114720;-74
2023/02/28 07:12:45;;;;;;;26.00;16.30;;;;;;;0.86;67.01;101818.48;129990;1259;114746;-74
2023/02/28 07:15:55;;;;;;;27.10;16.00;;;;;;;1.00;66.99;101819.23;129935;1260;114763;-73
2023/02/28 07:18:58;;;;;;;29.40;16.20;;;;;;;1.13;66.73;101817.65;129948;1259;115378;-74
2023/02/28 07:22:02;;;;;;;26.80;16.70;;;;;;;1.28;66.58;101817.67;130038;1260;115077;-72
2023/02/28 07:25:06;;;;;;;22.60;14.40;;;;;;;1.44;66.42;101822.45;129979;1261;114721;-72
2023/02/28 07:28:08;;;;;;;21.60;14.00;;;;;;;1.58;66.01;101822.98;129633;1263;114757;-73
2023/02/28 07:31:13;;;;;;;20.50;14.40;;;;;;;1.72;65.54;101822.44;130071;1272;114743;-73
2023/02/28 07:34:16;;;;;;;25.40;14.40;;;;;;;1.87;65.57;101820.31;129823;1276;114847;-73
2023/02/28 07:37:18;;;;;;;28.70;15.50;;;;;;;2.00;64.85;101818.88;129954;1268;114792;-69
2023/02/28 07:40:21;;;;;;;20.80;13.10;;;;;;;2.19;64.74;101821.00;130096;1260;115397;-70
2023/02/28 07:43:23;;;;;;;20.10;13.20;;;;;;;2.35;64.46;101823.80;130118;1257;114816;-75
2023/02/28 07:46:26;;;;;;;19.90;13.20;;;;;;;2.52;63.82;101822.17;130277;1257;115163;-65
2023/02/28 07:49:29;;;;;;;25.50;15.40;;;;;;;2.62;63.84;101825.44;130246;1258;115090;-74
2023/02/28 07:52:32;;;;;;;21.30;13.10;;;;;;;2.74;63.54;101827.98;130087;1266;114754;-72
2023/02/28 07:55:34;;;;;;;23.80;14.00;;;;;;;2.83;62.93;101821.88;130025;1260;114751;-66
2023/02/28 07:58:37;;;;;;;23.00;14.00;;;;;;;2.95;63.15;101821.79;130259;1257;114663;-60
2023/02/28 08:01:40;;;;;;;20.80;13.40;;;;;;;3.13;62.89;101819.78;130103;1256;115436;-71
2023/02/28 08:04:43;;;;;;;22.90;13.80;;;;;;;3.30;62.22;101820.23;130139;1256;114727;-69
2023/02/28 08:07:48;;;;;;;20.10;13.00;;;;;;;3.47;61.96;101818.02;129991;1264;114801;-63
2023/02/28 08:10:51;;;;;;;18.90;13.20;;;;;;;3.69;61.86;101816.67;130071;1267;114715;-70
2023/02/28 08:13:54;;;;;;;24.50;14.80;;;;;;;3.90;61.65;101820.64;129991;1257;115118;-68
2023/02/28 08:16:56;;;;;;;29.80;18.10;;;;;;;4.10;61.24;101816.95;130001;1276;115506;-67
2023/02/28 08:19:59;;;;;;;27.40;15.30;;;;;;;4.31;60.92;101817.87;130227;1256;114742;-74
2023/02/28 08:23:01;;;;;;;22.80;15.90;;;;;;;4.42;59.90;101817.01;130088;1276;115224;-66
2023/02/28 08:26:04;;;;;;;24.40;16.20;;;;;;;4.40;59.30;101819.30;129912;1261;116390;-64
2023/02/28 08:29:07;;;;;;;23.80;15.50;;;;;;;4.51;59.70;101809.92;130136;1276;114786;-76
2023/02/28 08:32:09;;;;;;;19.10;12.50;;;;;;;4.64;59.43;101812.05;130174;1260;114760;-76
2023/02/28 08:35:12;;;;;;;22.10;13.30;;;;;;;4.70;59.06;101814.70;130232;1257;114737;-74
2023/02/28 08:38:14;;;;;;;21.20;11.70;;;;;;;4.72;58.35;101812.75;130061;1266;115417;-77
2023/02/28 08:41:17;;;;;;;17.50;11.90;;;;;;;4.71;58.35;101811.86;129936;1260;114738;-76
2023/02/28 08:44:19;;;;;;;18.00;12.00;;;;;;;4.66;57.99;101815.58;130037;1256;114734;-77
2023/02/28 08:47:22;;;;;;;15.40;10.20;;;;;;;4.61;58.00;101815.05;129956;1257;115262;-71
2023/02/28 08:50:24;;;;;;;13.90;8.80;;;;;;;4.59;57.19;101815.94;130200;1267;114757;-77
2023/02/28 08:53:27;;;;;;;11.10;7.90;;;;;;;4.52;56.26;101818.24;129888;1255;128054;-76
2023/02/28 08:56:30;;;;;;;16.20;9.10;;;;;;;4.41;55.83;101820.02;130040;1258;114734;-76
2023/02/28 08:59:32;;;;;;;19.10;9.70;;;;;;;4.36;56.38;101817.19;130000;1255;114798;-67
2023/02/28 09:02:35;;;;;;;16.00;9.30;;;;;;;4.33;55.71;101819.83;130039;1256;114810;-77
2023/02/28 09:05:37;;;;;;;14.80;8.80;;;;;;;4.31;55.66;101818.76;130120;1254;115163;-68
2023/02/28 09:08:40;;;;;;;15.30;8.80;;;;;;;4.27;54.65;101819.47;129970;1266;115055;-75
2023/02/28 09:11:43;;;;;;;12.80;9.00;;;;;;;4.22;55.49;101814.67;130050;1276;114780;-75
2023/02/28 09:14:46;;;;;;;17.00;9.60;;;;;;;4.29;55.87;101813.27;130060;1254;115130;-63
2023/02/28 09:17:48;;;;;;;14.60;9.00;;;;;;;4.40;55.30;101812.59;130069;1257;114863;-75
2023/02/28 09:20:51;;;;;;;17.20;10.30;;;;;;;4.37;54.37;101813.11;130229;1254;114833;-75
2023/02/28 09:23:53;;;;;;;15.20;8.90;;;;;;;4.38;54.71;101811.16;129803;1258;114889;-71
2023/02/28 09:26:56;;;;;;;18.50;9.90;;;;;;;4.43;55.22;101809.92;130056;1276;114728;-72
2023/02/28 09:29:58;;;;;;;19.80;10.70;;;;;;;4.51;55.32;101803.02;130023;1276;114667;-80
2023/02/28 09:33:00;;;;;;;16.70;10.00;;;;;;;4.59;55.60;101799.84;130086;1276;114666;-66
2023/02/28 09:36:09;;;;;;;18.30;10.10;;;;;;;4.63;54.64;101801.60;129886;1276;116500;-75
2023/02/28 09:39:15;;;;;;;16.10;9.20;;;;;;;4.65;54.96;101796.63;130054;1257;114830;-77
2023/02/28 09:42:22;;;;;;;18.70;10.00;;;;;;;4.71;54.42;101792.23;130049;1254;114731;-80
2023/02/28 09:45:41;;;;;;;16.70;9.50;;;;;;;4.79;54.74;101787.26;130084;1255;114698;-80
2023/02/28 09:48:46;;;;;;;15.20;10.00;;;;;;;4.82;54.45;101789.72;130025;1256;127936;-75
2023/02/28 09:51:59;;;;;;;11.10;6.80;;;;;;;4.77;53.71;101788.33;130127;1276;114807;-69
2023/02/28 09:55:38;;;;;;;14.50;9.80;;;;;;;4.67;53.43;101787.45;129671;1267;115182;-73
2023/02/28 09:59:04;;;;;;;15.50;9.10;;;;;;;4.62;52.96;101789.92;130167;1274;114740;-72
2023/02/28 10:02:16;;;;;;;14.60;9.00;;;;;;;4.55;53.57;101794.72;129881;1276;114827;-80
2023/02/28 10:05:45;;;;;;;15.50;8.20;;;;;;;4.57;53.91;101796.30;129883;1254;128358;-74
2023/02/28 10:09:09;;;;;;;13.20;8.70;;;;;;;4.63;53.73;101800.55;130115;1267;115324;-77
2023/02/28 10:12:12;;;;;;;13.60;7.60;;;;;;;4.57;52.75;101804.45;129640;1271;114868;-72
2023/02/28 10:15:16;;;;;;;13.80;7.40;;;;;;;4.51;53.08;101802.67;130071;1257;114664;-76
2023/02/28 10:18:23;;;;;;;11.20;7.30;;;;;;;4.53;53.33;101799.84;130066;1276;114709;-76
2023/02/28 10:21:34;;;;;;;14.50;8.10;;;;;;;4.53;53.16;101797.55;129940;1276;127848;-79
2023/02/28 10:24:43;;;;;;;15.40;9.40;;;;;;;4.53;52.92;101798.61;129809;1255;116521;-76
2023/02/28 10:27:46;;;;;;;14.90;9.20;;;;;;;4.53;53.23;101798.23;129717;1263;114701;-78
2023/02/28 10:30:51;;;;;;;14.30;7.90;;;;;;;4.52;53.01;101795.27;130044;1258;114757;-78
2023/02/28 10:33:53;;;;;;;16.00;9.70;;;;;;;4.53;53.20;101795.24;129935;1254;115248;-78
2023/02/28 10:36:56;;;;;;;16.60;9.50;;;;;;;4.56;53.11;101793.11;129978;1277;114732;-78
2023/02/28 10:39:58;;;;;;;17.30;9.80;;;;;;;4.57;53.32;101793.46;129941;1277;114763;-80
2023/02/28 10:43:12;;;;;;;13.10;8.30;;;;;;;4.59;52.96;101792.05;130084;1257;114769;-74
2023/02/28 10:46:25;;;;;;;15.20;8.70;;;;;;;4.52;51.88;101791.71;130012;1267;115572;-72
2023/02/28 10:49:29;;;;;;;18.10;9.60;;;;;;;4.51;52.94;101788.52;129772;1255;114831;-65
2023/02/28 10:52:40;;;;;;;17.70;9.90;;;;;;;4.61;53.38;101792.75;129835;1276;114753;-62
2023/02/28 10:55:43;;;;;;;13.70;8.20;;;;;;;4.77;53.24;101786.55;129996;1260;129028;-62
2023/02/28 10:58:50;;;;;;;14.80;9.00;;;;;;;4.87;52.07;101782.29;129832;1261;114817;-64
2023/02/28 11:01:53;;;;;;;16.20;9.10;;;;;;;4.83;51.81;101781.05;129865;1258;114834;-63
2023/02/28 11:04:56;;;;;;;12.90;8.80;;;;;;;4.83;52.09;101779.11;129962;1257;115227;-62
2023/02/28 11:08:18;;;;;;;15.60;8.10;;;;;;;4.88;51.80;101777.68;130067;1276;114779;-60
2023/02/28 11:11:22;;;;;;;15.70;9.40;;;;;;;4.96;51.39;101772.17;129787;1261;128266;-63
2023/02/28 11:14:30;;;;;;;13.70;8.70;;;;;;;5.07;51.60;101772.50;129614;1257;115262;-63
2023/02/28 11:17:32;;;;;;;22.70;11.30;;;;;;;5.17;51.39;101769.45;130029;1275;114756;-64
2023/02/28 11:20:35;;;;;;;19.80;12.10;;;;;;;5.25;51.39;101767.64;130140;1254;115121;-65
2023/02/28 11:23:40;;;;;;;22.60;12.60;;;;;;;5.24;51.20;101767.30;130048;1275;114702;-64
2023/02/28 11:26:46;;;;;;;25.30;13.60;;;;;;;5.22;51.59;101762.17;130002;1270;128872;-67
2023/02/28 11:29:48;;;;;;;25.50;14.20;;;;;;;5.23;51.55;101764.82;129661;1273;115164;-62
2023/02/28 11:32:51;;;;;;;25.60;13.50;;;;;;;5.21;51.63;101764.84;129993;1257;115411;-64
2023/02/28 11:36:01;;;;;;;20.90;11.80;;;;;;;5.15;51.17;101764.67;130367;1254;114705;-63
2023/02/28 11:39:11;;;;;;;21.50;11.80;;;;;;;5.00;50.44;101767.02;130243;1261;114856;-64
2023/02/28 11:42:39;;;;;;;23.60;13.00;;;;;;;4.77;50.26;101770.09;129899;1270;126499;-66
2023/02/28 11:45:51;;;;;;;24.30;13.40;;;;;;;4.58;51.23;101777.02;130023;1276;114803;-65
2023/02/28 11:48:59;;;;;;;24.20;14.70;;;;;;;4.52;51.42;101775.79;130351;1269;114733;-61
2023/02/28 11:52:41;;;;;;;23.40;13.90;;;;;;;4.54;52.22;101767.45;130084;1257;114771;-63
2023/02/28 11:56:33;;;;;;;22.80;12.30;;;;;;;4.73;52.53;101759.83;129870;1276;114734;-65
2023/02/28 12:00:02;;;;;;;20.80;13.10;;;;;;;4.95;52.30;101753.41;129074;1271;128796;-65
2023/02/28 12:03:24;;;;;;;25.50;13.10;;;;;;;5.11;51.98;101747.16;128275;1283;116538;-65
2023/02/28 12:06:44;;;;;;;20.80;11.70;;;;;;;5.20;51.55;101745.54;128245;1290;115446;-63
2023/02/28 12:09:59;;;;;;;19.50;11.90;;;;;;;5.13;50.51;101744.50;128405;1274;114889;-64
2023/02/28 12:13:20;;;;;;;22.90;11.90;;;;;;;4.98;49.99;101739.77;127868;1282;114922;-64
2023/02/28 12:16:27;;;;;;;21.30;12.30;;;;;;;4.76;50.03;101736.30;128031;1289;126642;-62
2023/02/28 12:19:59;;;;;;;19.10;11.20;;;;;;;4.64;50.94;101730.11;128404;1289;115309;-64
2023/02/28 12:23:10;;;;;;;18.70;10.80;;;;;;;4.56;50.87;101727.83;128624;1276;114974;-66
2023/02/28 12:26:32;;;;;;;20.80;11.60;;;;;;;4.49;51.06;101722.70;128264;1277;114929;-64
2023/02/28 12:29:52;;;;;;;18.20;10.50;;;;;;;4.44;50.63;101724.13;128224;1296;114969;-64
2023/02/28 12:33:17;;;;;;;21.10;12.00;;;;;;;4.38;50.71;101725.90;128030;1277;128783;-64
2023/02/28 12:36:26;;;;;;;19.90;11.40;;;;;;;4.35;51.04;101720.42;128748;1274;115153;-64
2023/02/28 12:39:38;;;;;;;19.30;10.40;;;;;;;4.35;51.28;101713.35;129912;1267;114849;-64
2023/02/28 12:42:46;;;;;;;16.60;11.00;;;;;;;4.36;50.82;101707.16;130244;1257;115100;-64
2023/02/28 12:46:04;;;;;;;18.50;11.50;;;;;;;4.33;51.13;101702.91;130222;1256;114817;-65
2023/02/28 12:49:09;;;;;;;18.00;10.40;;;;;;;4.34;51.31;101698.31;130119;1260;128347;-65
2023/02/28 12:52:13;;;;;;;20.20;12.10;;;;;;;4.43;51.89;101700.43;130266;1256;115404;-65
2023/02/28 12:55:54;;;;;;;19.10;12.30;;;;;;;4.52;51.75;101698.11;130354;1257;114763;-64
2023/02/28 12:59:01;;;;;;;20.80;12.90;;;;;;;4.65;52.07;101695.43;129975;1259;114930;-65
2023/02/28 13:02:41;;;;;;;22.10;13.20;;;;;;;4.74;51.94;101695.41;130326;1256;114670;-64
2023/02/28 13:06:06;;;;;;;25.40;13.80;;;;;;;4.80;51.52;101694.69;130321;1256;128846;-66
2023/02/28 13:09:12;;;;;;;27.40;14.10;;;;;;;4.75;51.27;101694.34;130331;1253;114738;-64
2023/02/28 13:12:15;;;;;;;21.90;12.80;;;;;;;4.66;50.91;101698.61;129889;1260;114958;-67
2023/02/28 13:15:34;;;;;;;31.20;15.40;;;;;;;4.59;51.20;101703.41;130125;1255;114797;-68
2023/02/28 13:18:39;;;;;;;29.50;14.90;;;;;;;4.53;51.12;101701.30;130339;1276;114734;-66
2023/02/28 13:21:44;;;;;;;17.20;10.10;;;;;;;4.51;51.38;101702.71;130331;1276;128660;-67
2023/02/28 13:24:54;;;;;;;29.70;16.50;;;;;;;4.54;51.24;101703.08;130251;1256;260928;-65
2023/02/28 13:28:00;;;;;;;27.10;16.10;;;;;;;4.60;51.25;101700.04;129983;1257;114716;-66
2023/02/28 13:31:04;;;;;;;27.30;15.70;;;;;;;4.62;51.31;101696.33;129874;1263;114876;-65
2023/02/28 13:34:15;;;;;;;30.40;16.80;;;;;;;4.68;51.65;101693.48;130306;1277;115259;-65
2023/02/28 13:37:17;;;;;;;27.20;15.50;;;;;;;4.74;51.64;101691.52;130235;1257;128891;-66
2023/02/28 13:40:27;;;;;;;25.30;15.30;;;;;;;4.77;51.36;101689.02;130141;1277;114724;-65
2023/02/28 13:44:05;;;;;;;23.80;15.60;;;;;;;4.79;51.26;101689.38;130236;1256;114701;-65
2023/02/28 13:47:23;;;;;;;24.90;15.00;;;;;;;4.78;51.01;101688.32;130255;1253;114761;-64
2023/02/28 13:50:25;;;;;;;23.10;13.80;;;;;;;4.74;51.12;101682.84;130111;1258;114915;-63
2023/02/28 13:54:01;;;;;;;26.30;14.20;;;;;;;4.73;50.95;101679.13;130239;1273;114815;-64
2023/02/28 13:57:17;;;;;;;26.80;14.20;;;;;;;4.70;50.56;101678.42;130201;1257;115167;-64
2023/02/28 14:00:28;;;;;;;24.00;13.90;;;;;;;4.68;50.70;101671.00;129873;1262;114819;-64
2023/02/28 14:03:40;;;;;;;28.30;14.50;;;;;;;4.66;50.66;101668.52;130219;1257;115193;-65